Time;durP1;ratioP1;P1;durP2;ratioP2;P2;SDS_P1;SDS_P2;PMS_P1;PMS_P2;Temp;Humidity;BMP_temperature;BMP_pressure;BME280_temperature;BME280_humidity;BME280_pressure;Samples;Min_cycle;Max_cycle;Signal;HPM_P1;HPM_P2
2021/08/13 00:02:01;;;;;;;11.07;7.70;;;;;;;23.90;65.83;100638.69;4973135;28;20435;-80
2021/08/13 00:04:26;;;;;;;12.13;8.07;;;;;;;23.88;66.21;100642.91;4973452;28;20392;-80
2021/08/13 00:06:52;;;;;;;11.00;8.20;;;;;;;23.85;66.32;100657.41;4973111;28;20392;-80
2021/08/13 00:09:18;;;;;;;9.93;7.70;;;;;;;23.81;66.58;100653.69;4972838;28;20767;-80
2021/08/13 00:11:43;;;;;;;8.95;7.60;;;;;;;23.78;66.64;100650.41;4973352;28;20400;-80
2021/08/13 00:14:09;;;;;;;10.73;7.70;;;;;;;23.77;66.24;100648.00;4973003;28;20911;-80
2021/08/13 00:16:35;;;;;;;10.15;7.53;;;;;;;23.75;65.96;100645.53;4972813;28;20400;-80
2021/08/13 00:19:01;;;;;;;8.50;7.35;;;;;;;23.71;66.33;100641.81;4972951;28;20408;-80
2021/08/13 00:21:26;;;;;;;9.60;7.67;;;;;;;23.68;66.62;100642.47;4973196;28;20442;-80
2021/08/13 00:23:52;;;;;;;10.60;7.35;;;;;;;23.61;67.17;100644.13;4972920;28;20486;-80
2021/08/13 00:26:17;;;;;;;12.07;7.47;;;;;;;23.51;67.18;100645.22;4972873;28;20401;-80
2021/08/13 00:28:42;;;;;;;8.33;6.90;;;;;;;23.51;67.38;100644.44;4972871;28;20406;-80
2021/08/13 00:31:07;;;;;;;10.37;8.40;;;;;;;23.50;67.16;100651.94;4972908;28;20887;-80
2021/08/13 00:33:33;;;;;;;10.53;7.23;;;;;;;23.50;67.34;100656.66;4972770;28;20478;-80
2021/08/13 00:35:58;;;;;;;9.35;7.07;;;;;;;23.49;67.50;100653.06;4972628;28;20404;-80
2021/08/13 00:38:23;;;;;;;12.87;7.90;;;;;;;23.46;67.13;100653.72;4971685;28;20429;-80
2021/08/13 00:40:49;;;;;;;10.23;7.60;;;;;;;23.40;67.20;100666.09;4972921;28;20388;-80
2021/08/13 00:43:14;;;;;;;11.13;7.77;;;;;;;23.34;67.37;100677.59;4972201;28;20447;-80
2021/08/13 00:45:39;;;;;;;11.00;7.63;;;;;;;23.31;67.76;100679.06;4972921;28;20408;-79
2021/08/13 00:48:05;;;;;;;11.00;7.53;;;;;;;23.32;68.01;100679.84;4972237;28;20459;-80
2021/08/13 00:50:31;;;;;;;8.87;7.67;;;;;;;23.33;67.66;100687.03;4972852;28;20529;-80
2021/08/13 00:52:57;;;;;;;8.03;7.33;;;;;;;23.34;67.42;100691.44;4972397;28;20400;-80
2021/08/13 00:55:23;;;;;;;9.63;7.40;;;;;;;23.33;67.97;100706.38;4968532;28;20501;-80
2021/08/13 00:57:48;;;;;;;9.70;7.63;;;;;;;23.25;68.16;100696.94;4953409;29;20591;-80
2021/08/13 01:00:13;;;;;;;8.93;8.10;;;;;;;23.19;68.39;100693.53;4953348;29;20795;-80
2021/08/13 01:02:39;;;;;;;8.60;7.53;;;;;;;23.21;68.50;100696.78;4939997;28;20813;-80
2021/08/13 01:05:05;;;;;;;11.60;8.53;;;;;;;23.23;68.89;100700.03;4957148;28;20405;-80
2021/08/13 01:07:30;;;;;;;11.13;7.75;;;;;;;23.25;68.76;100692.22;4953403;29;20401;-80
2021/08/13 01:09:56;;;;;;;8.87;7.83;;;;;;;23.29;68.05;100692.38;4953428;29;20750;-80
2021/08/13 01:12:32;;;;;;;9.27;8.00;;;;;;;23.32;67.80;100688.97;4953327;28;20406;-80
2021/08/13 01:15:07;;;;;;;9.17;7.70;;;;;;;23.32;67.83;100694.50;4952361;28;20436;-80
2021/08/13 01:17:44;;;;;;;9.60;8.02;;;;;;;23.30;67.79;100698.75;4953315;29;20394;-81
2021/08/13 01:20:22;;;;;;;9.32;8.13;;;;;;;23.19;67.88;100698.22;4954989;28;20381;-80
2021/08/13 01:23:05;;;;;;;14.20;7.82;;;;;;;23.14;67.89;100690.09;4940887;28;20400;-80
2021/08/13 01:25:35;;;;;;;8.48;7.63;;;;;;;23.06;68.16;100694.47;4976393;28;20800;-80
2021/08/13 01:28:25;;;;;;;13.07;8.60;;;;;;;23.01;68.56;100704.88;4974905;28;20828;-80
2021/08/13 01:30:51;;;;;;;9.18;7.57;;;;;;;22.99;68.76;100705.19;4936219;28;20459;-80
2021/08/13 01:33:19;;;;;;;10.52;8.07;;;;;;;23.01;68.87;100702.13;4970072;28;20805;-80
2021/08/13 01:35:47;;;;;;;9.15;8.13;;;;;;;23.00;69.06;100687.47;4974815;28;20482;-80
2021/08/13 01:38:22;;;;;;;9.98;8.20;;;;;;;23.03;68.63;100689.59;4967596;28;20896;-80
2021/08/13 01:40:50;;;;;;;8.55;7.72;;;;;;;23.05;68.48;100692.84;4956632;29;20464;-80
2021/08/13 01:43:17;;;;;;;9.13;7.82;;;;;;;23.08;68.36;100678.41;4956419;29;20762;-80
2021/08/13 01:45:44;;;;;;;11.27;8.25;;;;;;;23.06;68.43;100672.34;4972982;28;20400;-80
2021/08/13 01:48:11;;;;;;;10.40;7.93;;;;;;;23.06;68.68;100674.31;4963068;28;20493;-80
2021/08/13 01:50:37;;;;;;;8.30;7.50;;;;;;;23.06;68.69;100675.13;4955927;28;20852;-80
2021/08/13 01:53:03;;;;;;;10.43;8.10;;;;;;;23.05;68.83;100669.94;4956576;28;20461;-80
2021/08/13 01:55:30;;;;;;;9.93;8.07;;;;;;;23.06;68.71;100671.53;4975725;28;20746;-80
2021/08/13 01:57:56;;;;;;;9.23;7.88;;;;;;;23.08;68.91;100663.75;4974251;28;20891;-80
2021/08/13 02:00:23;;;;;;;12.57;8.23;;;;;;;23.07;68.99;100662.13;4975161;28;20415;-80
2021/08/13 02:02:51;;;;;;;9.55;7.60;;;;;;;23.09;68.56;100655.13;4975232;28;20459;-80
2021/08/13 02:05:22;;;;;;;10.18;7.93;;;;;;;23.14;68.25;100657.75;4975335;28;20404;-80
2021/08/13 02:07:48;;;;;;;8.77;7.77;;;;;;;23.17;68.12;100661.81;4975548;28;20439;-80
2021/08/13 02:10:15;;;;;;;10.13;8.60;;;;;;;23.17;68.42;100654.34;4975376;28;20404;-80
2021/08/13 02:12:41;;;;;;;11.10;7.95;;;;;;;23.18;68.37;100660.69;4975449;28;20392;-80
2021/08/13 02:15:09;;;;;;;9.82;7.78;;;;;;;23.16;68.34;100663.75;4975441;28;20507;-80
2021/08/13 02:17:39;;;;;;;13.33;7.30;;;;;;;23.18;68.40;100660.69;4975098;28;20853;-80
2021/08/13 02:20:13;;;;;;;9.13;8.23;;;;;;;23.18;67.92;100649.63;4974611;28;20507;-80
2021/08/13 02:22:38;;;;;;;13.80;8.07;;;;;;;23.20;67.58;100661.16;4955999;28;20444;-81
2021/08/13 02:25:04;;;;;;;11.90;8.20;;;;;;;23.23;67.90;100672.38;4982512;28;20903;-80
2021/08/13 02:27:31;;;;;;;9.57;8.10;;;;;;;23.17;67.92;100659.88;4975140;28;20411;-80
2021/08/13 02:29:57;;;;;;;9.00;7.40;;;;;;;23.13;68.38;100663.59;4974321;28;20474;-80
2021/08/13 02:32:24;;;;;;;9.97;7.43;;;;;;;23.10;68.62;100689.94;4974692;28;20408;-81
2021/08/13 02:34:50;;;;;;;12.48;7.53;;;;;;;23.02;69.09;100703.75;4975180;28;20419;-81
2021/08/13 02:37:22;;;;;;;8.23;7.45;;;;;;;22.97;69.24;100701.13;4989924;28;20408;-81
2021/08/13 02:39:53;;;;;;;8.40;7.55;;;;;;;22.96;69.45;100708.59;4974973;28;20428;-81
2021/08/13 02:42:26;;;;;;;11.80;8.55;;;;;;;22.91;69.41;100732.81;4973930;28;20753;-81
2021/08/13 02:44:56;;;;;;;17.65;9.13;;;;;;;22.86;69.69;100730.19;4974990;28;20491;-81
2021/08/13 02:47:25;;;;;;;13.63;9.38;;;;;;;22.81;70.69;100730.34;4974757;28;20392;-81
2021/08/13 02:49:55;;;;;;;13.02;9.57;;;;;;;22.80;72.15;100718.47;4974116;28;20397;-82
2021/08/13 02:52:37;;;;;;;10.23;8.82;;;;;;;22.77;72.28;100708.06;4974145;28;20393;-82
2021/08/13 02:55:06;;;;;;;10.15;8.50;;;;;;;22.78;72.46;100723.50;4974372;28;20848;-82
2021/08/13 02:57:33;;;;;;;9.82;8.20;;;;;;;22.75;72.64;100732.44;4974668;28;20409;-82
2021/08/13 03:00:01;;;;;;;14.03;9.77;;;;;;;22.73;72.96;100737.44;4974099;28;20404;-83
2021/08/13 03:02:27;;;;;;;12.65;8.93;;;;;;;22.71;73.58;100728.69;4974250;28;20729;-83
2021/08/13 03:04:54;;;;;;;12.30;8.43;;;;;;;22.70;73.46;100738.09;4974115;28;20751;-83
2021/08/13 03:07:19;;;;;;;10.80;9.73;;;;;;;22.70;73.45;100727.84;4974704;28;20392;-82
2021/08/13 03:09:46;;;;;;;11.10;9.13;;;;;;;22.64;73.56;100701.47;4974604;28;20392;-83
2021/08/13 03:12:12;;;;;;;17.83;9.23;;;;;;;22.64;73.74;100706.19;4974318;28;20404;-85
2021/08/13 03:14:39;;;;;;;18.75;12.15;;;;;;;22.60;74.74;100722.59;4973674;28;20431;-82
2021/08/13 03:17:06;;;;;;;19.52;11.45;;;;;;;22.52;76.28;100726.13;4985775;28;20391;-82
2021/08/13 03:19:31;;;;;;;20.15;12.00;;;;;;;22.44;76.73;100710.31;4970595;28;20455;-82
2021/08/13 03:21:57;;;;;;;17.17;11.67;;;;;;;22.36;78.24;100711.09;4982585;28;20428;-83
2021/08/13 03:24:23;;;;;;;23.00;13.93;;;;;;;22.39;78.73;100716.00;4974016;28;20768;-84
2021/08/13 03:26:49;;;;;;;20.65;11.00;;;;;;;22.42;78.04;100707.06;4973925;28;20395;-84
2021/08/13 03:29:16;;;;;;;21.95;11.70;;;;;;;22.43;77.48;100699.59;4974545;28;20458;-84
2021/08/13 03:31:46;;;;;;;18.48;11.45;;;;;;;22.39;77.35;100709.66;4974115;28;20496;-83
2021/08/13 03:34:14;;;;;;;18.75;11.73;;;;;;;22.33;77.99;100710.94;4979855;28;20438;-83
2021/08/13 03:36:40;;;;;;;17.15;11.27;;;;;;;22.35;78.12;100711.41;4976958;28;20459;-83
2021/08/13 03:39:07;;;;;;;16.55;11.82;;;;;;;22.35;78.63;100708.66;4973026;28;20400;-83
2021/08/13 03:41:32;;;;;;;17.52;11.35;;;;;;;22.35;78.50;100717.75;4973635;28;22672;-83
2021/08/13 03:43:58;;;;;;;15.30;12.30;;;;;;;22.35;78.38;100719.69;4969666;28;20511;-82
2021/08/13 03:46:23;;;;;;;16.65;10.90;;;;;;;22.32;78.29;100728.63;4970913;28;20450;-82
2021/08/13 03:48:48;;;;;;;15.83;10.60;;;;;;;22.21;77.62;100728.06;4973693;28;20446;-83
2021/08/13 03:51:14;;;;;;;12.40;10.97;;;;;;;22.12;77.23;100733.53;4973657;28;20392;-82
2021/08/13 03:53:39;;;;;;;12.60;10.13;;;;;;;22.04;77.41;100742.56;4969054;28;20425;-82
2021/08/13 03:56:04;;;;;;;10.73;9.73;;;;;;;22.06;77.17;100748.56;4954435;28;21057;-83
2021/08/13 03:58:30;;;;;;;12.73;9.95;;;;;;;22.07;76.99;100763.19;4954328;29;20397;-83
2021/08/13 04:00:55;;;;;;;13.23;10.20;;;;;;;22.07;77.22;100761.25;4954295;29;20762;-82
2021/08/13 04:03:20;;;;;;;11.37;8.90;;;;;;;22.05;77.18;100760.78;4957016;28;20416;-84
2021/08/13 04:05:46;;;;;;;13.30;10.57;;;;;;;22.04;76.80;100761.88;4953778;28;20422;-82
2021/08/13 04:08:11;;;;;;;11.77;9.80;;;;;;;22.05;75.52;100759.94;4954085;29;20437;-83
2021/08/13 04:10:36;;;;;;;12.55;10.02;;;;;;;22.01;75.56;100754.25;4936295;29;20417;-83
2021/08/13 04:13:02;;;;;;;12.27;10.43;;;;;;;21.97;76.06;100758.75;4956877;28;20409;-83
2021/08/13 04:15:29;;;;;;;11.33;9.87;;;;;;;21.95;76.29;100757.44;4956350;28;21020;-83
2021/08/13 04:17:54;;;;;;;11.55;10.35;;;;;;;21.89;76.44;100761.41;4952946;28;20485;-83
2021/08/13 04:20:20;;;;;;;14.00;10.10;;;;;;;21.86;76.73;100759.28;4951137;28;20492;-83
2021/08/13 04:22:45;;;;;;;14.52;10.85;;;;;;;21.86;76.55;100765.63;4953829;29;20501;-82
2021/08/13 04:25:10;;;;;;;14.20;10.60;;;;;;;21.79;77.24;100764.41;4953796;29;20402;-82
2021/08/13 04:27:36;;;;;;;14.00;10.93;;;;;;;21.77;77.47;100767.47;4957150;28;20459;-83
2021/08/13 04:30:01;;;;;;;13.17;10.87;;;;;;;21.76;77.22;100765.03;4953485;29;20485;-83
2021/08/13 04:32:26;;;;;;;12.55;11.02;;;;;;;21.72;78.05;100773.13;4953691;29;20398;-83
2021/08/13 04:34:52;;;;;;;16.07;11.47;;;;;;;21.68;78.20;100767.41;4953604;29;20444;-83
2021/08/13 04:37:17;;;;;;;17.27;11.83;;;;;;;21.69;78.06;100766.28;4953811;28;20406;-83
2021/08/13 04:39:42;;;;;;;14.20;10.57;;;;;;;21.68;77.93;100763.84;4953843;29;20761;-83
2021/08/13 04:42:07;;;;;;;16.10;10.93;;;;;;;21.67;78.19;100762.19;4951542;28;20418;-83
2021/08/13 04:44:33;;;;;;;13.17;11.03;;;;;;;21.68;78.22;100761.91;4953072;28;20923;-83
2021/08/13 04:46:59;;;;;;;18.77;12.18;;;;;;;21.68;78.04;100763.84;4953608;29;20402;-83
2021/08/13 04:49:25;;;;;;;15.05;12.02;;;;;;;21.69;78.52;100759.97;4952814;28;20774;-83
2021/08/13 04:51:50;;;;;;;14.05;11.38;;;;;;;21.68;78.13;100759.13;4953611;29;20404;-83
2021/08/13 04:54:15;;;;;;;15.10;11.20;;;;;;;21.66;77.92;100750.38;4959402;28;20522;-84
2021/08/13 04:56:41;;;;;;;14.17;10.10;;;;;;;21.66;77.38;100750.38;4971248;28;20878;-84
2021/08/13 04:59:06;;;;;;;12.37;10.90;;;;;;;21.67;77.62;100757.50;4972495;28;20392;-83
2021/08/13 05:01:32;;;;;;;14.55;11.65;;;;;;;21.65;77.63;100764.47;4972089;28;20774;-83
2021/08/13 05:03:57;;;;;;;14.33;11.47;;;;;;;21.61;77.89;100764.25;4987307;28;20404;-83
2021/08/13 05:06:22;;;;;;;13.80;9.83;;;;;;;21.62;77.78;100767.84;4984502;28;20410;-83
2021/08/13 05:08:47;;;;;;;13.07;11.03;;;;;;;21.62;77.63;100768.66;4984067;28;20443;-84
2021/08/13 05:11:13;;;;;;;13.50;11.20;;;;;;;21.65;77.45;100759.75;4971489;28;20803;-84
2021/08/13 05:13:38;;;;;;;14.20;11.00;;;;;;;21.67;77.53;100764.94;4968577;28;20420;-84
2021/08/13 05:16:04;;;;;;;15.98;10.70;;;;;;;21.67;77.80;100763.00;4966162;28;20476;-84
2021/08/13 05:18:29;;;;;;;14.27;11.70;;;;;;;21.70;77.72;100759.63;4967173;28;20420;-83
2021/08/13 05:20:55;;;;;;;15.47;11.97;;;;;;;21.72;77.95;100767.63;4967437;28;20412;-84
2021/08/13 05:23:20;;;;;;;15.63;10.65;;;;;;;21.72;77.95;100762.91;4966429;28;20416;-84
2021/08/13 05:25:46;;;;;;;13.80;10.63;;;;;;;21.72;77.58;100765.66;4966976;28;21034;-84
2021/08/13 05:28:11;;;;;;;13.33;11.33;;;;;;;21.75;77.64;100761.47;4968260;28;20452;-83
2021/08/13 05:30:36;;;;;;;13.90;11.33;;;;;;;21.79;78.37;100768.00;4967673;28;20891;-84
2021/08/13 05:33:02;;;;;;;16.33;11.37;;;;;;;21.82;78.74;100772.06;4972032;28;20412;-84
2021/08/13 05:35:27;;;;;;;14.75;11.00;;;;;;;21.84;79.00;100778.91;4971869;28;20885;-84
2021/08/13 05:37:53;;;;;;;12.87;11.20;;;;;;;21.88;78.73;100777.16;4972221;28;20401;-84
2021/08/13 05:40:18;;;;;;;13.30;10.60;;;;;;;21.94;78.77;100786.97;4971501;28;20467;-84
2021/08/13 05:42:43;;;;;;;14.57;11.13;;;;;;;22.00;78.29;100776.63;4969972;28;20571;-84
2021/08/13 05:45:13;;;;;;;13.53;11.20;;;;;;;22.02;78.78;100779.91;4968081;28;20451;-83
2021/08/13 05:47:39;;;;;;;15.93;11.18;;;;;;;21.96;78.65;100776.44;4971919;28;20536;-84
2021/08/13 05:50:06;;;;;;;11.73;10.30;;;;;;;22.00;78.55;100782.97;4972240;28;20400;-84
2021/08/13 05:52:31;;;;;;;12.60;10.63;;;;;;;22.05;78.94;100784.78;4968533;28;20419;-85
2021/08/13 05:54:57;;;;;;;14.70;12.00;;;;;;;22.07;79.47;100782.50;4970252;28;20435;-85
2021/08/13 05:57:22;;;;;;;12.90;11.47;;;;;;;22.10;79.36;100788.22;4989193;28;20425;-86
2021/08/13 05:59:47;;;;;;;20.95;12.10;;;;;;;22.10;79.40;100795.69;4990375;28;20610;-83
2021/08/13 06:02:17;;;;;;;13.87;10.60;;;;;;;22.11;79.00;100791.81;4982340;28;20551;-83
2021/08/13 06:04:43;;;;;;;16.00;11.38;;;;;;;22.14;78.63;100792.00;4972033;28;20396;-84
2021/08/13 06:07:08;;;;;;;11.47;10.27;;;;;;;22.20;78.51;100792.69;4975405;28;20388;-83
2021/08/13 06:09:33;;;;;;;12.90;11.00;;;;;;;22.26;78.50;100793.38;4974959;28;20404;-84
2021/08/13 06:11:59;;;;;;;12.00;10.70;;;;;;;22.26;79.26;100794.22;4975307;28;20404;-83
2021/08/13 06:14:24;;;;;;;15.40;10.65;;;;;;;22.30;79.47;100794.38;4975228;28;20833;-83
2021/08/13 06:16:49;;;;;;;11.97;10.60;;;;;;;22.33;79.02;100796.53;4975346;28;20396;-81
2021/08/13 06:19:14;;;;;;;15.07;11.60;;;;;;;22.36;78.94;100804.19;4975605;28;20408;-85
2021/08/13 06:21:40;;;;;;;13.37;9.73;;;;;;;22.37;78.92;100806.59;4975349;28;20818;-86
2021/08/13 06:24:05;;;;;;;12.67;10.90;;;;;;;22.37;78.71;100800.28;4972954;28;20413;-84
2021/08/13 06:26:30;;;;;;;12.40;10.47;;;;;;;22.40;78.75;100799.63;4973926;28;20434;-86
2021/08/13 06:28:55;;;;;;;12.40;10.27;;;;;;;22.40;78.99;100810.69;4975183;28;20779;-84
2021/08/13 06:31:21;;;;;;;12.48;10.82;;;;;;;22.46;79.07;100806.69;4984685;28;20452;-83
2021/08/13 06:33:47;;;;;;;14.37;10.20;;;;;;;22.51;79.07;100806.53;4968436;28;20431;-85
2021/08/13 06:36:13;;;;;;;12.32;9.95;;;;;;;22.53;78.25;100809.78;4973917;28;20419;-84
2021/08/13 06:38:38;;;;;;;13.57;10.93;;;;;;;22.54;77.91;100811.44;4976834;28;20404;-84
2021/08/13 06:41:03;;;;;;;12.55;10.38;;;;;;;22.54;78.09;100806.72;4978193;28;20417;-83
2021/08/13 06:43:29;;;;;;;16.03;10.90;;;;;;;22.57;78.27;100806.09;4979560;28;20819;-83
2021/08/13 06:45:54;;;;;;;11.83;10.33;;;;;;;22.60;77.97;100810.16;4978500;28;20486;-84
2021/08/13 06:48:20;;;;;;;14.93;10.17;;;;;;;22.64;77.96;100814.75;4975861;28;20414;-84
2021/08/13 06:50:45;;;;;;;12.98;10.57;;;;;;;22.66;78.31;100817.19;4976330;28;20416;-84
2021/08/13 06:53:10;;;;;;;14.07;10.57;;;;;;;22.71;78.51;100809.63;4988907;28;20484;-85
2021/08/13 06:55:35;;;;;;;13.83;10.20;;;;;;;22.77;78.36;100803.94;4980168;28;20435;-84
2021/08/13 06:58:03;;;;;;;15.53;10.30;;;;;;;22.80;78.61;100809.66;4978210;28;20985;-82
2021/08/13 07:00:28;;;;;;;13.80;9.82;;;;;;;22.82;78.54;100812.91;4974142;28;20406;-83
2021/08/13 07:02:53;;;;;;;13.97;10.30;;;;;;;22.84;78.10;100816.19;4973325;28;20963;-85
2021/08/13 07:05:19;;;;;;;12.70;10.13;;;;;;;22.90;78.24;100817.66;4980437;28;20478;-81
2021/08/13 07:07:44;;;;;;;11.00;9.17;;;;;;;22.93;77.79;100822.56;4979322;28;20502;-84
2021/08/13 07:10:13;;;;;;;10.80;8.83;;;;;;;22.99;77.45;100826.81;4977843;28;20428;-83
2021/08/13 07:12:41;;;;;;;10.50;9.43;;;;;;;23.04;77.12;100834.16;4973446;28;20449;-83
2021/08/13 07:15:09;;;;;;;12.85;9.55;;;;;;;23.09;76.99;100840.34;4992283;28;20505;-84
2021/08/13 07:17:35;;;;;;;12.82;9.18;;;;;;;23.15;77.14;100838.28;4968633;28;20404;-82
2021/08/13 07:20:02;;;;;;;13.85;9.80;;;;;;;23.20;77.32;100838.13;4982719;28;20415;-79
2021/08/13 07:22:27;;;;;;;12.13;8.27;;;;;;;23.23;75.92;100832.75;4977737;28;20412;-81
2021/08/13 07:24:53;;;;;;;12.10;9.53;;;;;;;23.27;75.78;100842.06;4974166;28;20428;-83
2021/08/13 07:27:18;;;;;;;10.10;9.00;;;;;;;23.35;76.04;100834.13;4975425;28;20411;-80
2021/08/13 07:29:44;;;;;;;13.40;9.50;;;;;;;23.41;75.94;100835.63;4984511;28;20416;-81
2021/08/13 07:32:09;;;;;;;10.33;7.43;;;;;;;23.49;73.86;100835.63;4969436;28;20506;-81
2021/08/13 07:34:34;;;;;;;15.50;8.53;;;;;;;23.53;72.61;100844.91;4970910;28;20448;-81
2021/08/13 07:37:00;;;;;;;11.80;8.68;;;;;;;23.58;73.21;100841.16;4973794;28;20482;-81
2021/08/13 07:39:25;;;;;;;12.33;8.63;;;;;;;23.58;74.09;100844.75;4973569;28;20424;-83
2021/08/13 07:41:50;;;;;;;12.47;9.13;;;;;;;23.61;74.25;100852.41;4971146;28;20422;-78
2021/08/13 07:44:15;;;;;;;9.63;8.07;;;;;;;23.66;73.85;100848.69;4972625;28;20428;-79
2021/08/13 07:46:41;;;;;;;9.83;7.07;;;;;;;23.70;73.59;100844.16;4976980;28;20414;-81
2021/08/13 07:49:06;;;;;;;10.07;7.50;;;;;;;23.75;73.21;100846.75;4980271;28;21332;-81
2021/08/13 07:51:32;;;;;;;10.20;7.20;;;;;;;23.78;72.80;100838.59;4979678;28;20416;-81
2021/08/13 07:53:58;;;;;;;10.10;7.30;;;;;;;23.84;72.43;100836.53;4991094;28;20439;-80
2021/08/13 07:56:23;;;;;;;12.52;7.30;;;;;;;23.92;72.30;100851.47;4977941;28;20417;-80
2021/08/13 07:58:48;;;;;;;11.73;7.70;;;;;;;23.97;72.64;100865.19;4976904;28;20502;-81
2021/08/13 08:01:13;;;;;;;9.73;7.30;;;;;;;23.94;70.32;100858.31;4977702;28;21032;-83
2021/08/13 08:03:39;;;;;;;11.70;7.03;;;;;;;23.93;69.80;100870.56;4964241;28;20423;-80
2021/08/13 08:06:05;;;;;;;11.13;6.77;;;;;;;23.97;70.43;100882.63;4977812;28;20422;-80
2021/08/13 08:08:30;;;;;;;10.45;6.95;;;;;;;24.05;71.27;100876.25;4967895;28;20762;-80
2021/08/13 08:10:55;;;;;;;8.80;6.57;;;;;;;24.14;70.99;100870.75;4976593;28;20425;-81
2021/08/13 08:13:21;;;;;;;10.80;6.60;;;;;;;24.27;69.70;100864.22;4973189;28;20420;-81
2021/08/13 08:15:46;;;;;;;10.10;5.90;;;;;;;24.38;68.55;100870.25;4978181;28;20410;-82
2021/08/13 08:18:12;;;;;;;7.63;6.22;;;;;;;24.46;68.33;100867.50;4993075;28;20446;-82
2021/08/13 08:20:37;;;;;;;7.33;6.30;;;;;;;24.60;67.76;100868.09;4976672;28;20503;-79
2021/08/13 08:23:03;;;;;;;8.23;6.33;;;;;;;24.73;68.31;100866.31;4971636;28;20481;-81
2021/08/13 08:25:29;;;;;;;8.95;5.95;;;;;;;24.89;67.63;100869.41;4973638;28;20414;-80
2021/08/13 08:27:55;;;;;;;8.95;6.28;;;;;;;24.89;66.59;100870.22;4978758;28;20427;-80
2021/08/13 08:30:20;;;;;;;12.23;6.20;;;;;;;24.93;66.42;100868.38;4983305;28;20418;-84
2021/08/13 08:32:46;;;;;;;9.53;6.43;;;;;;;25.07;65.95;100869.00;4980132;28;20913;-93
2021/08/13 08:35:11;;;;;;;8.50;5.83;;;;;;;25.16;66.56;100867.00;4974636;28;20421;-83
2021/08/13 08:37:56;;;;;;;10.73;5.57;;;;;;;25.16;66.40;100874.53;4992385;28;20430;-80
2021/08/13 08:40:27;;;;;;;11.18;5.72;;;;;;;25.14;66.57;100877.63;4971290;28;20404;-80
2021/08/13 08:42:56;;;;;;;11.63;5.80;;;;;;;25.21;66.81;100882.66;4967910;28;20408;-80
2021/08/13 08:45:26;;;;;;;10.48;5.68;;;;;;;25.27;65.71;100873.81;4969645;28;20528;-81
2021/08/13 08:47:53;;;;;;;10.27;5.55;;;;;;;25.37;65.46;100882.91;4974141;28;20500;-81
2021/08/13 08:50:21;;;;;;;10.40;5.70;;;;;;;25.49;65.38;100886.59;4975833;28;20493;-81
2021/08/13 08:52:48;;;;;;;11.15;5.70;;;;;;;25.65;64.72;100887.66;4973011;28;20499;-81
2021/08/13 08:55:14;;;;;;;11.50;5.57;;;;;;;25.83;63.76;100885.63;4964567;28;20519;-80
2021/08/13 08:57:40;;;;;;;7.97;5.80;;;;;;;25.95;64.12;100885.69;4965007;28;20422;-81
2021/08/13 09:00:08;;;;;;;8.85;5.35;;;;;;;25.93;63.63;100893.56;4931505;29;20421;-81
2021/08/13 09:02:33;;;;;;;9.10;5.32;;;;;;;25.99;63.01;100886.66;4958773;28;20416;-81
2021/08/13 09:05:03;;;;;;;6.88;5.50;;;;;;;26.13;62.38;100884.41;4959770;28;20443;-81
2021/08/13 09:07:28;;;;;;;11.45;5.80;;;;;;;26.27;61.86;100881.41;4957747;28;21555;-82
2021/08/13 09:09:54;;;;;;;13.87;6.07;;;;;;;26.42;63.47;100888.28;4948425;28;20410;-78
2021/08/13 09:12:20;;;;;;;13.02;5.55;;;;;;;26.54;63.04;100889.16;4945746;28;20805;-81
2021/08/13 09:14:46;;;;;;;10.82;5.70;;;;;;;26.64;61.80;100885.94;4959525;28;20432;-82
2021/08/13 09:17:11;;;;;;;10.20;5.80;;;;;;;26.78;61.30;100891.22;4953874;28;20776;-82
2021/08/13 09:19:41;;;;;;;15.23;5.73;;;;;;;26.84;61.85;100892.66;4954298;28;20420;-84
2021/08/13 09:22:13;;;;;;;8.18;5.53;;;;;;;26.97;60.04;100893.50;4954041;28;20417;-85
2021/08/13 09:24:40;;;;;;;9.32;5.13;;;;;;;27.04;60.13;100897.34;4953638;28;20421;-84
2021/08/13 09:27:27;;;;;;;9.73;5.63;;;;;;;27.20;60.35;100895.50;4968801;28;20499;-83
2021/08/13 09:30:24;;;;;;;9.88;6.15;;;;;;;27.39;59.38;100885.78;4971110;28;20399;-82
2021/08/13 09:32:59;;;;;;;9.88;5.63;;;;;;;27.51;58.48;100894.97;4920086;28;20431;-83
2021/08/13 09:35:45;;;;;;;8.52;5.63;;;;;;;27.72;55.99;100892.09;4953270;28;20972;-80
2021/08/13 09:38:14;;;;;;;8.68;5.68;;;;;;;27.97;55.04;100898.41;4954409;28;20436;-80
2021/08/13 09:40:41;;;;;;;9.52;5.25;;;;;;;28.18;55.53;100893.53;4970843;28;20457;-80
2021/08/13 09:43:07;;;;;;;12.50;6.30;;;;;;;28.39;55.42;100896.94;4968615;28;20423;-80
2021/08/13 09:45:33;;;;;;;10.02;5.57;;;;;;;28.60;54.47;100886.41;4944388;28;20416;-83
2021/08/13 09:47:59;;;;;;;12.40;5.97;;;;;;;28.81;54.40;100886.22;4958343;28;20412;-84
2021/08/13 09:50:41;;;;;;;12.07;5.10;;;;;;;29.26;51.94;100895.03;4956502;28;20428;-82
2021/08/13 09:53:15;;;;;;;7.10;5.10;;;;;;;29.39;51.66;100901.31;4967800;28;20499;-82
2021/08/13 09:55:42;;;;;;;12.40;5.68;;;;;;;29.81;51.60;100901.53;4993938;28;20424;-83
2021/08/13 09:58:11;;;;;;;7.20;5.07;;;;;;;30.43;49.79;100897.78;4998220;28;20497;-85
2021/08/13 10:00:47;;;;;;;8.35;4.82;;;;;;;30.90;48.17;100900.31;4998292;28;20574;-85
2021/08/13 10:03:14;;;;;;;7.82;5.22;;;;;;;31.45;47.14;100898.91;4982927;28;20907;-82
2021/08/13 10:05:39;;;;;;;9.90;4.90;;;;;;;31.88;45.98;100911.63;4981555;28;20428;-87
2021/08/13 10:08:06;;;;;;;8.23;4.82;;;;;;;32.31;45.41;100913.88;4980478;28;20423;-87
2021/08/13 10:10:37;;;;;;;7.18;5.03;;;;;;;33.04;43.28;100914.34;4975572;28;20400;-85
2021/08/13 10:13:06;;;;;;;6.03;4.90;;;;;;;34.01;41.12;100909.19;5003271;28;20924;-87
2021/08/13 10:15:39;;;;;;;7.50;4.77;;;;;;;34.99;39.26;100916.44;4981379;28;20426;-87
2021/08/13 10:18:10;;;;;;;7.00;5.15;;;;;;;35.48;37.36;100908.06;4966170;28;20424;-89
2021/08/13 10:20:41;;;;;;;9.20;5.27;;;;;;;35.79;37.13;100901.63;4973267;28;20495;-87
2021/08/13 10:23:08;;;;;;;10.57;5.38;;;;;;;35.50;38.12;100908.50;4987587;28;20408;-87
2021/08/13 10:25:37;;;;;;;11.02;5.65;;;;;;;36.20;36.93;100896.31;4976287;28;20419;-89
2021/08/13 10:28:02;;;;;;;9.40;5.50;;;;;;;37.23;35.05;100907.91;4964577;28;20412;-86
2021/08/13 10:30:28;;;;;;;8.07;5.00;;;;;;;38.02;33.29;100894.69;4975024;28;20400;-90
2021/08/13 10:32:57;;;;;;;6.90;5.47;;;;;;;39.11;31.22;100908.63;4972922;28;20493;-88
2021/08/13 10:35:51;;;;;;;7.40;5.18;;;;;;;40.12;29.63;100902.44;4963824;28;20514;-87
2021/08/13 10:38:19;;;;;;;8.35;4.95;;;;;;;40.21;29.16;100902.66;4965603;28;20830;-87
2021/08/13 10:40:46;;;;;;;6.72;5.70;;;;;;;40.33;29.73;100901.22;4970600;28;20761;-86
2021/08/13 10:43:13;;;;;;;7.40;4.88;;;;;;;40.30;29.02;100900.06;4971784;28;20780;-85
2021/08/13 10:45:41;;;;;;;6.33;4.63;;;;;;;40.18;29.67;100899.91;4972837;28;20902;-87
2021/08/13 10:48:21;;;;;;;9.32;5.38;;;;;;;39.91;30.48;100900.81;4974728;28;20427;-87
2021/08/13 10:50:48;;;;;;;8.87;5.00;;;;;;;39.24;31.01;100895.47;4989757;28;20388;-85
2021/08/13 10:53:31;;;;;;;8.50;5.03;;;;;;;39.50;30.61;100896.69;4971603;28;20427;-85
2021/08/13 10:55:59;;;;;;;8.65;4.60;;;;;;;39.66;30.43;100897.59;4954477;29;20400;-83
2021/08/13 10:58:36;;;;;;;8.95;4.72;;;;;;;39.84;29.87;100906.63;4953591;29;20402;-87
2021/08/13 11:01:06;;;;;;;8.63;5.93;;;;;;;40.12;29.40;100901.63;4954278;29;20788;-84
2021/08/13 11:03:34;;;;;;;5.03;4.50;;;;;;;40.30;28.36;100899.25;4953419;29;20406;-82
2021/08/13 11:06:00;;;;;;;6.78;4.75;;;;;;;39.70;29.37;100898.38;4954632;29;20409;-85
2021/08/13 11:08:51;;;;;;;5.85;5.10;;;;;;;39.84;29.63;100892.44;4954613;29;20402;-84
2021/08/13 11:11:16;;;;;;;9.02;5.50;;;;;;;40.29;29.58;100889.94;4954422;29;20422;-83
2021/08/13 11:13:43;;;;;;;5.33;4.83;;;;;;;40.51;28.11;100893.09;4953935;29;20413;-84
2021/08/13 11:16:24;;;;;;;9.02;5.82;;;;;;;39.99;30.09;100887.25;4954411;29;20421;-84
2021/08/13 11:18:57;;;;;;;6.72;5.45;;;;;;;40.17;29.83;100899.09;4954887;29;20406;-86